sensor_id;sensor_type;location;lat;lon;timestamp;P1;durP1;ratioP1;P2;durP2;ratioP2
18023;SDS011;9137;50.960;3.118;2022-07-24T00:02:12;4.18;;;3.72;;
18023;SDS011;9137;50.960;3.118;2022-07-24T00:04:39;5.55;;;3.75;;
18023;SDS011;9137;50.960;3.118;2022-07-24T00:07:06;5.03;;;4.07;;
18023;SDS011;9137;50.960;3.118;2022-07-24T00:09:33;5.90;;;4.30;;
18023;SDS011;9137;50.960;3.118;2022-07-24T00:12:01;5.90;;;3.80;;
18023;SDS011;9137;50.960;3.118;2022-07-24T00:14:28;6.07;;;4.23;;
18023;SDS011;9137;50.960;3.118;2022-07-24T00:16:55;6.85;;;4.03;;
18023;SDS011;9137;50.960;3.118;2022-07-24T00:19:22;4.18;;;3.70;;
18023;SDS011;9137;50.960;3.118;2022-07-24T00:21:49;5.90;;;3.85;;
18023;SDS011;9137;50.960;3.118;2022-07-24T00:24:17;4.70;;;3.63;;
18023;SDS011;9137;50.960;3.118;2022-07-24T00:26:44;4.22;;;3.80;;
18023;SDS011;9137;50.960;3.118;2022-07-24T00:29:12;6.18;;;3.67;;
18023;SDS011;9137;50.960;3.118;2022-07-24T00:31:39;5.72;;;4.20;;
18023;SDS011;9137;50.960;3.118;2022-07-24T00:34:05;5.20;;;3.38;;
18023;SDS011;9137;50.960;3.118;2022-07-24T00:36:32;4.30;;;3.70;;
18023;SDS011;9137;50.960;3.118;2022-07-24T00:38:59;5.38;;;3.78;;
18023;SDS011;9137;50.960;3.118;2022-07-24T00:41:26;5.85;;;3.50;;
18023;SDS011;9137;50.960;3.118;2022-07-24T00:44:00;4.95;;;3.13;;
18023;SDS011;9137;50.960;3.118;2022-07-24T00:46:29;4.10;;;3.47;;
18023;SDS011;9137;50.960;3.118;2022-07-24T00:48:56;4.72;;;3.55;;
18023;SDS011;9137;50.960;3.118;2022-07-24T00:51:23;7.15;;;3.70;;
18023;SDS011;9137;50.960;3.118;2022-07-24T00:53:51;4.07;;;3.60;;
18023;SDS011;9137;50.960;3.118;2022-07-24T00:56:18;4.40;;;3.70;;
18023;SDS011;9137;50.960;3.118;2022-07-24T00:58:45;6.30;;;4.30;;
18023;SDS011;9137;50.960;3.118;2022-07-24T01:01:12;4.72;;;4.18;;
18023;SDS011;9137;50.960;3.118;2022-07-24T01:03:41;6.65;;;4.55;;
18023;SDS011;9137;50.960;3.118;2022-07-24T01:06:08;6.05;;;4.28;;
18023;SDS011;9137;50.960;3.118;2022-07-24T01:08:35;5.55;;;4.93;;
18023;SDS011;9137;50.960;3.118;2022-07-24T01:11:02;6.28;;;5.10;;
18023;SDS011;9137;50.960;3.118;2022-07-24T01:13:31;6.60;;;4.80;;
18023;SDS011;9137;50.960;3.118;2022-07-24T01:15:58;6.75;;;5.18;;
18023;SDS011;9137;50.960;3.118;2022-07-24T01:18:25;6.13;;;5.50;;
18023;SDS011;9137;50.960;3.118;2022-07-24T01:20:53;7.78;;;5.68;;
18023;SDS011;9137;50.960;3.118;2022-07-24T01:23:21;8.20;;;5.60;;
18023;SDS011;9137;50.960;3.118;2022-07-24T01:25:49;7.33;;;5.60;;
18023;SDS011;9137;50.960;3.118;2022-07-24T01:28:16;5.70;;;4.90;;
18023;SDS011;9137;50.960;3.118;2022-07-24T01:30:44;6.43;;;5.70;;
18023;SDS011;9137;50.960;3.118;2022-07-24T01:33:11;6.32;;;5.45;;
18023;SDS011;9137;50.960;3.118;2022-07-24T01:35:39;6.63;;;5.22;;
18023;SDS011;9137;50.960;3.118;2022-07-24T01:38:07;7.47;;;6.20;;
18023;SDS011;9137;50.960;3.118;2022-07-24T01:40:34;6.13;;;5.10;;
18023;SDS011;9137;50.960;3.118;2022-07-24T01:43:01;6.18;;;5.57;;
18023;SDS011;9137;50.960;3.118;2022-07-24T01:45:29;8.65;;;5.90;;
18023;SDS011;9137;50.960;3.118;2022-07-24T01:47:56;7.57;;;5.82;;
18023;SDS011;9137;50.960;3.118;2022-07-24T01:50:23;6.90;;;5.57;;
18023;SDS011;9137;50.960;3.118;2022-07-24T01:52:50;7.60;;;5.37;;
18023;SDS011;9137;50.960;3.118;2022-07-24T01:55:20;8.23;;;5.93;;
18023;SDS011;9137;50.960;3.118;2022-07-24T01:57:47;8.10;;;6.32;;
18023;SDS011;9137;50.960;3.118;2022-07-24T02:00:15;6.28;;;5.30;;
18023;SDS011;9137;50.960;3.118;2022-07-24T02:02:43;7.80;;;5.15;;
18023;SDS011;9137;50.960;3.118;2022-07-24T02:05:11;6.82;;;5.50;;
18023;SDS011;9137;50.960;3.118;2022-07-24T02:07:39;6.13;;;5.53;;
18023;SDS011;9137;50.960;3.118;2022-07-24T02:10:06;6.35;;;5.65;;
18023;SDS011;9137;50.960;3.118;2022-07-24T02:12:35;6.63;;;5.93;;
18023;SDS011;9137;50.960;3.118;2022-07-24T02:15:03;7.25;;;5.55;;
18023;SDS011;9137;50.960;3.118;2022-07-24T02:17:31;8.88;;;5.80;;
18023;SDS011;9137;50.960;3.118;2022-07-24T02:19:58;8.50;;;6.80;;
18023;SDS011;9137;50.960;3.118;2022-07-24T02:22:25;7.97;;;6.10;;
18023;SDS011;9137;50.960;3.118;2022-07-24T02:24:52;8.82;;;6.78;;
18023;SDS011;9137;50.960;3.118;2022-07-24T02:27:19;6.93;;;6.28;;
18023;SDS011;9137;50.960;3.118;2022-07-24T02:29:47;8.32;;;6.80;;
18023;SDS011;9137;50.960;3.118;2022-07-24T02:32:14;8.23;;;6.65;;
18023;SDS011;9137;50.960;3.118;2022-07-24T02:34:41;7.30;;;6.30;;
18023;SDS011;9137;50.960;3.118;2022-07-24T02:37:08;6.67;;;5.90;;
18023;SDS011;9137;50.960;3.118;2022-07-24T02:39:34;6.68;;;5.72;;
18023;SDS011;9137;50.960;3.118;2022-07-24T02:42:01;8.15;;;6.68;;
18023;SDS011;9137;50.960;3.118;2022-07-24T02:44:28;8.57;;;6.28;;
18023;SDS011;9137;50.960;3.118;2022-07-24T02:46:56;6.68;;;6.03;;
18023;SDS011;9137;50.960;3.118;2022-07-24T02:49:23;6.90;;;6.20;;
18023;SDS011;9137;50.960;3.118;2022-07-24T02:51:50;7.95;;;6.80;;
18023;SDS011;9137;50.960;3.118;2022-07-24T02:54:17;7.22;;;6.13;;
18023;SDS011;9137;50.960;3.118;2022-07-24T02:56:44;8.30;;;5.68;;
18023;SDS011;9137;50.960;3.118;2022-07-24T02:59:11;7.25;;;5.38;;
18023;SDS011;9137;50.960;3.118;2022-07-24T03:01:38;6.25;;;5.65;;
18023;SDS011;9137;50.960;3.118;2022-07-24T03:04:07;8.03;;;5.90;;
18023;SDS011;9137;50.960;3.118;2022-07-24T03:06:34;6.60;;;5.90;;
18023;SDS011;9137;50.960;3.118;2022-07-24T03:09:01;6.63;;;5.75;;
18023;SDS011;9137;50.960;3.118;2022-07-24T03:11:27;6.38;;;5.25;;
18023;SDS011;9137;50.960;3.118;2022-07-24T03:13:54;7.38;;;5.65;;
18023;SDS011;9137;50.960;3.118;2022-07-24T03:16:21;7.03;;;6.07;;
18023;SDS011;9137;50.960;3.118;2022-07-24T03:18:50;6.40;;;5.80;;
18023;SDS011;9137;50.960;3.118;2022-07-24T03:21:18;6.93;;;6.03;;
18023;SDS011;9137;50.960;3.118;2022-07-24T03:23:45;7.22;;;5.97;;
18023;SDS011;9137;50.960;3.118;2022-07-24T03:26:12;8.75;;;6.65;;
18023;SDS011;9137;50.960;3.118;2022-07-24T03:28:39;7.18;;;5.95;;
18023;SDS011;9137;50.960;3.118;2022-07-24T03:31:06;7.43;;;6.03;;
18023;SDS011;9137;50.960;3.118;2022-07-24T03:33:33;7.90;;;5.75;;
18023;SDS011;9137;50.960;3.118;2022-07-24T03:36:00;6.68;;;6.07;;
18023;SDS011;9137;50.960;3.118;2022-07-24T03:38:28;9.43;;;6.60;;
18023;SDS011;9137;50.960;3.118;2022-07-24T03:40:55;7.88;;;5.80;;
18023;SDS011;9137;50.960;3.118;2022-07-24T03:43:22;7.80;;;6.10;;
18023;SDS011;9137;50.960;3.118;2022-07-24T03:45:49;9.45;;;6.60;;
18023;SDS011;9137;50.960;3.118;2022-07-24T03:48:15;7.72;;;6.15;;
18023;SDS011;9137;50.960;3.118;2022-07-24T03:50:43;9.00;;;7.60;;
18023;SDS011;9137;50.960;3.118;2022-07-24T03:53:09;8.65;;;7.68;;
18023;SDS011;9137;50.960;3.118;2022-07-24T03:55:38;9.65;;;7.07;;
18023;SDS011;9137;50.960;3.118;2022-07-24T03:58:05;7.78;;;6.97;;
18023;SDS011;9137;50.960;3.118;2022-07-24T04:00:32;8.97;;;7.47;;
18023;SDS011;9137;50.960;3.118;2022-07-24T04:02:59;8.80;;;6.67;;
18023;SDS011;9137;50.960;3.118;2022-07-24T04:05:26;7.88;;;6.82;;
18023;SDS011;9137;50.960;3.118;2022-07-24T04:07:53;7.63;;;6.88;;
18023;SDS011;9137;50.960;3.118;2022-07-24T04:10:19;8.85;;;6.63;;
18023;SDS011;9137;50.960;3.118;2022-07-24T04:12:48;8.85;;;6.50;;
18023;SDS011;9137;50.960;3.118;2022-07-24T04:15:15;7.68;;;6.45;;
18023;SDS011;9137;50.960;3.118;2022-07-24T04:17:42;7.17;;;6.10;;
18023;SDS011;9137;50.960;3.118;2022-07-24T04:20:09;10.07;;;7.32;;
18023;SDS011;9137;50.960;3.118;2022-07-24T04:22:37;8.05;;;7.20;;
18023;SDS011;9137;50.960;3.118;2022-07-24T04:25:05;10.00;;;7.93;;
18023;SDS011;9137;50.960;3.118;2022-07-24T04:27:32;9.75;;;7.47;;
18023;SDS011;9137;50.960;3.118;2022-07-24T04:30:00;9.25;;;7.20;;
18023;SDS011;9137;50.960;3.118;2022-07-24T04:32:27;8.60;;;6.88;;
18023;SDS011;9137;50.960;3.118;2022-07-24T04:34:54;9.13;;;7.03;;
18023;SDS011;9137;50.960;3.118;2022-07-24T04:37:21;7.60;;;6.80;;
18023;SDS011;9137;50.960;3.118;2022-07-24T04:39:48;9.95;;;7.10;;
18023;SDS011;9137;50.960;3.118;2022-07-24T04:42:15;10.23;;;7.72;;
18023;SDS011;9137;50.960;3.118;2022-07-24T04:44:42;7.93;;;6.65;;
18023;SDS011;9137;50.960;3.118;2022-07-24T04:47:10;8.63;;;7.15;;
18023;SDS011;9137;50.960;3.118;2022-07-24T04:49:37;9.07;;;6.55;;
18023;SDS011;9137;50.960;3.118;2022-07-24T04:52:04;9.97;;;7.53;;
18023;SDS011;9137;50.960;3.118;2022-07-24T04:54:31;9.27;;;7.03;;
18023;SDS011;9137;50.960;3.118;2022-07-24T04:56:58;9.05;;;6.75;;
18023;SDS011;9137;50.960;3.118;2022-07-24T04:59:25;7.18;;;6.18;;
18023;SDS011;9137;50.960;3.118;2022-07-24T05:01:52;8.50;;;7.43;;
18023;SDS011;9137;50.960;3.118;2022-07-24T05:04:20;9.17;;;7.07;;
18023;SDS011;9137;50.960;3.118;2022-07-24T05:06:47;9.80;;;7.22;;
18023;SDS011;9137;50.960;3.118;2022-07-24T05:09:14;8.05;;;7.20;;
18023;SDS011;9137;50.960;3.118;2022-07-24T05:11:41;8.57;;;6.97;;
18023;SDS011;9137;50.960;3.118;2022-07-24T05:14:08;8.75;;;7.10;;
18023;SDS011;9137;50.960;3.118;2022-07-24T05:16:35;9.35;;;6.18;;
18023;SDS011;9137;50.960;3.118;2022-07-24T05:19:02;7.93;;;6.38;;
18023;SDS011;9137;50.960;3.118;2022-07-24T05:21:30;7.22;;;6.03;;
18023;SDS011;9137;50.960;3.118;2022-07-24T05:23:58;8.98;;;6.50;;
18023;SDS011;9137;50.960;3.118;2022-07-24T05:26:26;7.22;;;6.13;;
18023;SDS011;9137;50.960;3.118;2022-07-24T05:28:53;8.80;;;6.60;;
18023;SDS011;9137;50.960;3.118;2022-07-24T05:31:20;8.10;;;6.43;;
18023;SDS011;9137;50.960;3.118;2022-07-24T05:33:47;9.68;;;5.70;;
18023;SDS011;9137;50.960;3.118;2022-07-24T05:36:14;8.43;;;6.32;;
18023;SDS011;9137;50.960;3.118;2022-07-24T05:38:42;8.80;;;6.33;;
18023;SDS011;9137;50.960;3.118;2022-07-24T05:41:09;8.40;;;6.20;;
18023;SDS011;9137;50.960;3.118;2022-07-24T05:43:37;7.97;;;6.07;;
18023;SDS011;9137;50.960;3.118;2022-07-24T05:46:04;7.38;;;6.40;;
18023;SDS011;9137;50.960;3.118;2022-07-24T05:48:31;7.97;;;6.10;;
18023;SDS011;9137;50.960;3.118;2022-07-24T05:50:58;8.02;;;6.07;;
18023;SDS011;9137;50.960;3.118;2022-07-24T05:53:25;7.20;;;6.05;;
18023;SDS011;9137;50.960;3.118;2022-07-24T05:55:54;7.10;;;6.40;;
18023;SDS011;9137;50.960;3.118;2022-07-24T05:58:21;9.63;;;6.05;;
18023;SDS011;9137;50.960;3.118;2022-07-24T06:00:47;7.65;;;5.57;;
18023;SDS011;9137;50.960;3.118;2022-07-24T06:03:14;7.43;;;5.28;;
18023;SDS011;9137;50.960;3.118;2022-07-24T06:05:41;7.28;;;5.10;;
18023;SDS011;9137;50.960;3.118;2022-07-24T06:08:08;6.85;;;5.40;;
18023;SDS011;9137;50.960;3.118;2022-07-24T06:10:35;5.72;;;5.18;;
18023;SDS011;9137;50.960;3.118;2022-07-24T06:13:03;5.75;;;4.75;;
18023;SDS011;9137;50.960;3.118;2022-07-24T06:15:31;5.50;;;4.35;;
18023;SDS011;9137;50.960;3.118;2022-07-24T06:17:58;4.47;;;4.07;;
18023;SDS011;9137;50.960;3.118;2022-07-24T06:20:24;5.63;;;4.00;;
18023;SDS011;9137;50.960;3.118;2022-07-24T06:22:51;4.47;;;3.78;;
18023;SDS011;9137;50.960;3.118;2022-07-24T06:25:18;7.72;;;4.38;;
18023;SDS011;9137;50.960;3.118;2022-07-24T06:27:47;8.25;;;4.30;;
18023;SDS011;9137;50.960;3.118;2022-07-24T06:30:17;5.80;;;4.20;;
18023;SDS011;9137;50.960;3.118;2022-07-24T06:32:46;4.82;;;3.97;;
18023;SDS011;9137;50.960;3.118;2022-07-24T06:35:14;4.38;;;3.97;;
18023;SDS011;9137;50.960;3.118;2022-07-24T06:37:41;4.10;;;3.80;;
18023;SDS011;9137;50.960;3.118;2022-07-24T06:40:09;6.57;;;3.60;;
18023;SDS011;9137;50.960;3.118;2022-07-24T06:42:37;3.78;;;3.38;;
18023;SDS011;9137;50.960;3.118;2022-07-24T06:45:04;4.00;;;3.20;;
18023;SDS011;9137;50.960;3.118;2022-07-24T06:47:33;4.85;;;3.13;;
18023;SDS011;9137;50.960;3.118;2022-07-24T06:50:00;6.20;;;3.23;;
18023;SDS011;9137;50.960;3.118;2022-07-24T06:52:27;3.58;;;3.17;;
18023;SDS011;9137;50.960;3.118;2022-07-24T06:54:55;3.72;;;3.00;;
18023;SDS011;9137;50.960;3.118;2022-07-24T06:57:22;2.55;;;2.35;;
18023;SDS011;9137;50.960;3.118;2022-07-24T06:59:50;5.18;;;3.50;;
18023;SDS011;9137;50.960;3.118;2022-07-24T07:02:17;2.92;;;2.63;;
18023;SDS011;9137;50.960;3.118;2022-07-24T07:04:45;3.27;;;2.97;;
18023;SDS011;9137;50.960;3.118;2022-07-24T07:07:12;3.08;;;2.40;;
18023;SDS011;9137;50.960;3.118;2022-07-24T07:09:40;3.17;;;2.67;;
18023;SDS011;9137;50.960;3.118;2022-07-24T07:12:07;2.72;;;2.35;;
18023;SDS011;9137;50.960;3.118;2022-07-24T07:14:34;4.90;;;2.20;;
18023;SDS011;9137;50.960;3.118;2022-07-24T07:17:01;3.17;;;2.17;;
18023;SDS011;9137;50.960;3.118;2022-07-24T07:19:29;3.90;;;2.15;;
18023;SDS011;9137;50.960;3.118;2022-07-24T07:21:57;2.20;;;2.00;;
18023;SDS011;9137;50.960;3.118;2022-07-24T07:24:24;3.37;;;2.10;;
18023;SDS011;9137;50.960;3.118;2022-07-24T07:26:51;3.70;;;2.22;;
18023;SDS011;9137;50.960;3.118;2022-07-24T07:29:18;3.70;;;2.22;;
18023;SDS011;9137;50.960;3.118;2022-07-24T07:31:45;2.55;;;1.92;;
18023;SDS011;9137;50.960;3.118;2022-07-24T07:34:11;3.17;;;2.30;;
18023;SDS011;9137;50.960;3.118;2022-07-24T07:36:38;3.10;;;2.30;;
18023;SDS011;9137;50.960;3.118;2022-07-24T07:39:07;2.80;;;2.17;;
18023;SDS011;9137;50.960;3.118;2022-07-24T07:41:33;4.65;;;2.05;;
18023;SDS011;9137;50.960;3.118;2022-07-24T07:44:00;2.30;;;2.10;;
18023;SDS011;9137;50.960;3.118;2022-07-24T07:46:27;3.37;;;2.73;;
18023;SDS011;9137;50.960;3.118;2022-07-24T07:48:55;3.53;;;2.30;;
18023;SDS011;9137;50.960;3.118;2022-07-24T07:51:22;3.03;;;2.10;;
18023;SDS011;9137;50.960;3.118;2022-07-24T07:53:49;2.17;;;1.90;;
18023;SDS011;9137;50.960;3.118;2022-07-24T07:56:17;2.67;;;1.70;;
18023;SDS011;9137;50.960;3.118;2022-07-24T07:58:45;3.10;;;1.93;;
18023;SDS011;9137;50.960;3.118;2022-07-24T08:01:12;2.88;;;2.47;;
18023;SDS011;9137;50.960;3.118;2022-07-24T08:03:39;2.92;;;2.22;;
18023;SDS011;9137;50.960;3.118;2022-07-24T08:06:06;4.50;;;2.20;;
18023;SDS011;9137;50.960;3.118;2022-07-24T08:08:33;3.97;;;2.20;;
18023;SDS011;9137;50.960;3.118;2022-07-24T08:11:00;2.10;;;1.90;;
18023;SDS011;9137;50.960;3.118;2022-07-24T08:13:28;3.63;;;1.83;;
18023;SDS011;9137;50.960;3.118;2022-07-24T08:15:55;3.80;;;2.70;;
18023;SDS011;9137;50.960;3.118;2022-07-24T08:18:22;3.20;;;2.10;;
18023;SDS011;9137;50.960;3.118;2022-07-24T08:20:49;2.55;;;1.90;;
18023;SDS011;9137;50.960;3.118;2022-07-24T08:23:16;2.63;;;2.08;;
18023;SDS011;9137;50.960;3.118;2022-07-24T08:25:43;2.75;;;1.90;;
18023;SDS011;9137;50.960;3.118;2022-07-24T08:28:10;2.93;;;1.93;;
18023;SDS011;9137;50.960;3.118;2022-07-24T08:30:38;5.15;;;2.00;;
18023;SDS011;9137;50.960;3.118;2022-07-24T08:33:05;3.83;;;2.07;;
18023;SDS011;9137;50.960;3.118;2022-07-24T08:35:32;1.98;;;1.80;;
18023;SDS011;9137;50.960;3.118;2022-07-24T08:37:59;2.00;;;1.70;;
18023;SDS011;9137;50.960;3.118;2022-07-24T08:40:27;3.08;;;1.70;;
18023;SDS011;9137;50.960;3.118;2022-07-24T08:43:00;3.28;;;1.98;;
18023;SDS011;9137;50.960;3.118;2022-07-24T08:45:27;1.83;;;1.65;;
18023;SDS011;9137;50.960;3.118;2022-07-24T08:47:56;2.85;;;1.90;;
18023;SDS011;9137;50.960;3.118;2022-07-24T08:50:24;2.05;;;1.85;;
18023;SDS011;9137;50.960;3.118;2022-07-24T08:52:51;2.55;;;1.60;;
18023;SDS011;9137;50.960;3.118;2022-07-24T08:55:19;2.15;;;1.85;;
18023;SDS011;9137;50.960;3.118;2022-07-24T08:57:46;3.10;;;1.40;;
18023;SDS011;9137;50.960;3.118;2022-07-24T09:00:13;3.40;;;2.10;;
18023;SDS011;9137;50.960;3.118;2022-07-24T09:02:41;2.22;;;1.80;;
18023;SDS011;9137;50.960;3.118;2022-07-24T09:05:09;2.00;;;1.90;;
18023;SDS011;9137;50.960;3.118;2022-07-24T09:07:36;3.10;;;2.05;;
18023;SDS011;9137;50.960;3.118;2022-07-24T09:10:03;2.38;;;1.70;;
18023;SDS011;9137;50.960;3.118;2022-07-24T09:12:32;2.45;;;2.05;;
18023;SDS011;9137;50.960;3.118;2022-07-24T09:15:00;2.53;;;2.20;;
18023;SDS011;9137;50.960;3.118;2022-07-24T09:17:36;2.95;;;2.08;;
18023;SDS011;9137;50.960;3.118;2022-07-24T09:20:15;3.60;;;2.42;;
18023;SDS011;9137;50.960;3.118;2022-07-24T09:22:43;3.20;;;2.30;;
18023;SDS011;9137;50.960;3.118;2022-07-24T09:25:12;2.30;;;2.10;;
18023;SDS011;9137;50.960;3.118;2022-07-24T09:27:45;2.83;;;1.90;;
18023;SDS011;9137;50.960;3.118;2022-07-24T09:30:24;4.47;;;2.60;;
18023;SDS011;9137;50.960;3.118;2022-07-24T09:32:54;2.55;;;2.13;;
18023;SDS011;9137;50.960;3.118;2022-07-24T09:35:24;3.55;;;2.40;;
18023;SDS011;9137;50.960;3.118;2022-07-24T09:37:56;2.90;;;2.45;;
18023;SDS011;9137;50.960;3.118;2022-07-24T09:40:27;3.55;;;2.80;;
18023;SDS011;9137;50.960;3.118;2022-07-24T09:42:56;3.83;;;2.55;;
18023;SDS011;9137;50.960;3.118;2022-07-24T09:45:50;2.78;;;2.58;;
18023;SDS011;9137;50.960;3.118;2022-07-24T09:48:25;2.97;;;2.77;;
18023;SDS011;9137;50.960;3.118;2022-07-24T09:50:56;3.10;;;2.70;;
18023;SDS011;9137;50.960;3.118;2022-07-24T09:53:25;3.53;;;2.70;;
18023;SDS011;9137;50.960;3.118;2022-07-24T09:55:57;2.92;;;2.50;;
18023;SDS011;9137;50.960;3.118;2022-07-24T09:58:30;3.37;;;2.50;;
18023;SDS011;9137;50.960;3.118;2022-07-24T10:00:58;3.90;;;2.53;;
18023;SDS011;9137;50.960;3.118;2022-07-24T10:03:27;2.50;;;2.30;;
18023;SDS011;9137;50.960;3.118;2022-07-24T10:05:57;5.20;;;2.55;;
18023;SDS011;9137;50.960;3.118;2022-07-24T10:08:25;3.55;;;2.60;;
18023;SDS011;9137;50.960;3.118;2022-07-24T10:10:53;4.00;;;2.80;;
18023;SDS011;9137;50.960;3.118;2022-07-24T10:13:21;3.38;;;2.92;;
18023;SDS011;9137;50.960;3.118;2022-07-24T10:15:54;4.30;;;2.30;;
18023;SDS011;9137;50.960;3.118;2022-07-24T10:18:39;2.85;;;2.58;;
18023;SDS011;9137;50.960;3.118;2022-07-24T10:21:16;4.65;;;2.60;;
18023;SDS011;9137;50.960;3.118;2022-07-24T10:23:58;4.63;;;2.80;;
18023;SDS011;9137;50.960;3.118;2022-07-24T10:26:37;2.85;;;2.50;;
18023;SDS011;9137;50.960;3.118;2022-07-24T10:29:07;2.90;;;2.70;;
18023;SDS011;9137;50.960;3.118;2022-07-24T10:31:36;4.00;;;3.05;;
18023;SDS011;9137;50.960;3.118;2022-07-24T10:34:05;3.17;;;2.80;;
18023;SDS011;9137;50.960;3.118;2022-07-24T10:36:39;3.72;;;2.50;;
18023;SDS011;9137;50.960;3.118;2022-07-24T10:39:20;2.65;;;2.40;;
18023;SDS011;9137;50.960;3.118;2022-07-24T10:42:01;3.80;;;2.63;;
18023;SDS011;9137;50.960;3.118;2022-07-24T10:44:29;3.42;;;2.58;;
18023;SDS011;9137;50.960;3.118;2022-07-24T10:47:00;5.32;;;2.88;;
18023;SDS011;9137;50.960;3.118;2022-07-24T10:52:25;4.35;;;2.53;;
18023;SDS011;9137;50.960;3.118;2022-07-24T10:57:45;3.20;;;2.90;;
18023;SDS011;9137;50.960;3.118;2022-07-24T11:00:24;4.00;;;2.70;;
18023;SDS011;9137;50.960;3.118;2022-07-24T11:03:00;3.30;;;3.00;;
18023;SDS011;9137;50.960;3.118;2022-07-24T11:05:30;3.30;;;3.00;;
18023;SDS011;9137;50.960;3.118;2022-07-24T11:11:08;3.00;;;2.73;;
18023;SDS011;9137;50.960;3.118;2022-07-24T11:13:47;3.28;;;2.78;;
18023;SDS011;9137;50.960;3.118;2022-07-24T11:16:17;3.75;;;2.50;;
18023;SDS011;9137;50.960;3.118;2022-07-24T11:22:11;3.17;;;2.53;;
18023;SDS011;9137;50.960;3.118;2022-07-24T11:25:04;3.60;;;2.88;;
18023;SDS011;9137;50.960;3.118;2022-07-24T11:27:54;2.77;;;2.57;;
18023;SDS011;9137;50.960;3.118;2022-07-24T11:30:23;2.92;;;2.72;;
18023;SDS011;9137;50.960;3.118;2022-07-24T11:32:51;3.33;;;3.03;;
18023;SDS011;9137;50.960;3.118;2022-07-24T11:35:25;2.72;;;2.53;;
18023;SDS011;9137;50.960;3.118;2022-07-24T11:37:58;4.35;;;2.83;;
18023;SDS011;9137;50.960;3.118;2022-07-24T11:40:28;3.05;;;2.72;;
18023;SDS011;9137;50.960;3.118;2022-07-24T11:42:56;3.08;;;2.55;;
18023;SDS011;9137;50.960;3.118;2022-07-24T11:45:23;2.80;;;2.60;;
18023;SDS011;9137;50.960;3.118;2022-07-24T11:47:50;4.00;;;3.20;;
18023;SDS011;9137;50.960;3.118;2022-07-24T11:50:20;4.70;;;2.78;;
18023;SDS011;9137;50.960;3.118;2022-07-24T11:52:47;2.88;;;2.50;;
18023;SDS011;9137;50.960;3.118;2022-07-24T11:55:15;4.13;;;2.77;;
18023;SDS011;9137;50.960;3.118;2022-07-24T11:57:45;3.47;;;2.57;;
18023;SDS011;9137;50.960;3.118;2022-07-24T12:00:14;3.47;;;2.70;;
18023;SDS011;9137;50.960;3.118;2022-07-24T12:02:43;3.08;;;2.60;;
18023;SDS011;9137;50.960;3.118;2022-07-24T12:05:11;3.15;;;2.67;;
18023;SDS011;9137;50.960;3.118;2022-07-24T12:07:38;2.88;;;2.67;;
18023;SDS011;9137;50.960;3.118;2022-07-24T12:10:05;2.80;;;2.60;;
18023;SDS011;9137;50.960;3.118;2022-07-24T12:12:34;6.15;;;3.30;;
18023;SDS011;9137;50.960;3.118;2022-07-24T12:15:05;3.20;;;2.90;;
18023;SDS011;9137;50.960;3.118;2022-07-24T12:20:20;2.92;;;2.67;;
18023;SDS011;9137;50.960;3.118;2022-07-24T12:22:47;3.30;;;3.00;;
18023;SDS011;9137;50.960;3.118;2022-07-24T12:25:15;2.80;;;2.60;;
18023;SDS011;9137;50.960;3.118;2022-07-24T12:27:43;3.53;;;2.87;;
18023;SDS011;9137;50.960;3.118;2022-07-24T12:30:19;2.50;;;2.20;;
18023;SDS011;9137;50.960;3.118;2022-07-24T12:32:55;2.75;;;2.53;;
18023;SDS011;9137;50.960;3.118;2022-07-24T12:35:24;2.50;;;2.30;;
18023;SDS011;9137;50.960;3.118;2022-07-24T12:37:52;3.30;;;2.38;;
18023;SDS011;9137;50.960;3.118;2022-07-24T12:40:23;2.77;;;2.57;;
18023;SDS011;9137;50.960;3.118;2022-07-24T12:42:55;3.78;;;2.60;;
18023;SDS011;9137;50.960;3.118;2022-07-24T12:45:28;3.63;;;2.40;;
18023;SDS011;9137;50.960;3.118;2022-07-24T12:50:59;2.95;;;2.67;;
18023;SDS011;9137;50.960;3.118;2022-07-24T12:53:28;3.03;;;2.73;;
18023;SDS011;9137;50.960;3.118;2022-07-24T12:56:03;3.38;;;2.78;;
18023;SDS011;9137;50.960;3.118;2022-07-24T12:58:52;2.67;;;2.28;;
18023;SDS011;9137;50.960;3.118;2022-07-24T13:01:23;3.50;;;2.50;;
18023;SDS011;9137;50.960;3.118;2022-07-24T13:03:53;2.58;;;2.40;;
18023;SDS011;9137;50.960;3.118;2022-07-24T13:06:33;2.65;;;2.35;;
18023;SDS011;9137;50.960;3.118;2022-07-24T13:09:02;2.92;;;2.58;;
18023;SDS011;9137;50.960;3.118;2022-07-24T13:11:30;2.85;;;2.65;;
18023;SDS011;9137;50.960;3.118;2022-07-24T13:13:57;2.88;;;2.67;;
18023;SDS011;9137;50.960;3.118;2022-07-24T13:16:27;3.05;;;2.70;;
18023;SDS011;9137;50.960;3.118;2022-07-24T13:18:56;2.58;;;2.38;;
18023;SDS011;9137;50.960;3.118;2022-07-24T13:21:24;3.65;;;2.80;;
18023;SDS011;9137;50.960;3.118;2022-07-24T13:23:51;3.42;;;2.70;;
18023;SDS011;9137;50.960;3.118;2022-07-24T13:26:18;2.88;;;2.58;;
18023;SDS011;9137;50.960;3.118;2022-07-24T13:28:46;2.97;;;2.67;;
18023;SDS011;9137;50.960;3.118;2022-07-24T13:31:14;2.97;;;2.67;;
18023;SDS011;9137;50.960;3.118;2022-07-24T13:33:42;2.83;;;2.63;;
18023;SDS011;9137;50.960;3.118;2022-07-24T13:36:09;3.10;;;2.80;;
18023;SDS011;9137;50.960;3.118;2022-07-24T13:38:37;2.97;;;2.60;;
18023;SDS011;9137;50.960;3.118;2022-07-24T13:41:04;3.90;;;3.13;;
18023;SDS011;9137;50.960;3.118;2022-07-24T13:43:31;2.80;;;2.60;;
18023;SDS011;9137;50.960;3.118;2022-07-24T13:45:58;3.30;;;3.00;;
18023;SDS011;9137;50.960;3.118;2022-07-24T13:48:25;3.45;;;2.70;;
18023;SDS011;9137;50.960;3.118;2022-07-24T13:50:53;3.60;;;3.10;;
18023;SDS011;9137;50.960;3.118;2022-07-24T13:53:21;4.03;;;3.30;;
18023;SDS011;9137;50.960;3.118;2022-07-24T13:55:47;3.30;;;3.10;;
18023;SDS011;9137;50.960;3.118;2022-07-24T13:58:14;3.63;;;3.33;;
18023;SDS011;9137;50.960;3.118;2022-07-24T14:00:42;3.70;;;3.38;;
18023;SDS011;9137;50.960;3.118;2022-07-24T14:03:09;4.72;;;3.38;;
18023;SDS011;9137;50.960;3.118;2022-07-24T14:05:36;3.85;;;3.55;;
18023;SDS011;9137;50.960;3.118;2022-07-24T14:08:04;4.18;;;3.88;;
18023;SDS011;9137;50.960;3.118;2022-07-24T14:10:31;5.35;;;3.28;;
18023;SDS011;9137;50.960;3.118;2022-07-24T14:12:58;3.50;;;3.20;;
18023;SDS011;9137;50.960;3.118;2022-07-24T14:15:26;3.80;;;3.50;;
18023;SDS011;9137;50.960;3.118;2022-07-24T14:17:55;4.40;;;3.30;;
18023;SDS011;9137;50.960;3.118;2022-07-24T14:20:22;3.55;;;3.25;;
18023;SDS011;9137;50.960;3.118;2022-07-24T14:22:49;3.90;;;3.55;;
18023;SDS011;9137;50.960;3.118;2022-07-24T14:25:18;3.70;;;3.28;;
18023;SDS011;9137;50.960;3.118;2022-07-24T14:27:45;5.53;;;3.75;;
18023;SDS011;9137;50.960;3.118;2022-07-24T14:30:12;3.10;;;2.80;;
18023;SDS011;9137;50.960;3.118;2022-07-24T14:32:39;3.45;;;3.15;;
18023;SDS011;9137;50.960;3.118;2022-07-24T14:35:07;3.55;;;3.20;;
18023;SDS011;9137;50.960;3.118;2022-07-24T14:37:35;3.40;;;3.20;;
18023;SDS011;9137;50.960;3.118;2022-07-24T14:40:04;2.70;;;2.50;;
18023;SDS011;9137;50.960;3.118;2022-07-24T14:42:34;3.45;;;3.15;;
18023;SDS011;9137;50.960;3.118;2022-07-24T14:45:02;3.85;;;3.30;;
18023;SDS011;9137;50.960;3.118;2022-07-24T14:52:36;3.50;;;3.13;;
18023;SDS011;9137;50.960;3.118;2022-07-24T14:55:04;3.33;;;3.13;;
18023;SDS011;9137;50.960;3.118;2022-07-24T14:57:32;3.20;;;2.90;;
18023;SDS011;9137;50.960;3.118;2022-07-24T15:00:00;4.47;;;3.85;;
18023;SDS011;9137;50.960;3.118;2022-07-24T15:02:27;4.38;;;3.22;;
18023;SDS011;9137;50.960;3.118;2022-07-24T15:04:54;3.63;;;3.33;;
18023;SDS011;9137;50.960;3.118;2022-07-24T15:07:21;4.57;;;3.50;;
18023;SDS011;9137;50.960;3.118;2022-07-24T15:09:48;3.45;;;2.90;;
18023;SDS011;9137;50.960;3.118;2022-07-24T15:12:15;3.35;;;3.05;;
18023;SDS011;9137;50.960;3.118;2022-07-24T15:14:42;3.72;;;3.30;;
18023;SDS011;9137;50.960;3.118;2022-07-24T15:17:10;3.30;;;3.10;;
18023;SDS011;9137;50.960;3.118;2022-07-24T15:19:37;3.45;;;3.15;;
18023;SDS011;9137;50.960;3.118;2022-07-24T15:22:04;4.32;;;3.90;;
18023;SDS011;9137;50.960;3.118;2022-07-24T15:24:34;3.65;;;3.33;;
18023;SDS011;9137;50.960;3.118;2022-07-24T15:27:01;3.60;;;3.30;;
18023;SDS011;9137;50.960;3.118;2022-07-24T15:29:28;4.03;;;3.40;;
18023;SDS011;9137;50.960;3.118;2022-07-24T15:31:56;4.13;;;3.60;;